sensor_id;sensor_type;location;lat;lon;timestamp;pressure;altitude;pressure_sealevel;temperature;humidity
63535;BME280;55128;50.230;18.944;2024-03-22T00:01:20;98698.38;;;11.59;64.15
63535;BME280;55128;50.230;18.944;2024-03-22T00:06:20;98687.84;;;11.75;65.22
63535;BME280;55128;50.230;18.944;2024-03-22T00:11:21;98696.69;;;11.75;65.88
63535;BME280;55128;50.230;18.944;2024-03-22T00:16:21;98697.16;;;11.83;65.55
63535;BME280;55128;50.230;18.944;2024-03-22T00:21:22;98699.16;;;11.97;65.39
63535;BME280;55128;50.230;18.944;2024-03-22T00:26:23;98686.22;;;11.90;65.79
63535;BME280;55128;50.230;18.944;2024-03-22T00:31:24;98676.16;;;11.96;66.13
63535;BME280;55128;50.230;18.944;2024-03-22T00:36:24;98677.88;;;11.97;66.71
63535;BME280;55128;50.230;18.944;2024-03-22T00:41:25;98685.09;;;12.13;66.24
63535;BME280;55128;50.230;18.944;2024-03-22T00:46:25;98685.31;;;12.08;66.47
63535;BME280;55128;50.230;18.944;2024-03-22T00:51:26;98677.97;;;12.13;66.94
63535;BME280;55128;50.230;18.944;2024-03-22T00:56:26;98676.06;;;12.15;67.22
63535;BME280;55128;50.230;18.944;2024-03-22T01:01:27;98676.22;;;12.12;67.67
63535;BME280;55128;50.230;18.944;2024-03-22T01:06:27;98672.63;;;12.13;67.68
63535;BME280;55128;50.230;18.944;2024-03-22T01:11:29;98675.69;;;12.05;68.16
63535;BME280;55128;50.230;18.944;2024-03-22T01:16:29;98668.50;;;12.08;68.18
63535;BME280;55128;50.230;18.944;2024-03-22T01:21:29;98680.84;;;11.91;68.58
63535;BME280;55128;50.230;18.944;2024-03-22T01:26:30;98674.97;;;11.84;69.81
63535;BME280;55128;50.230;18.944;2024-03-22T01:31:30;98682.81;;;11.68;70.67
63535;BME280;55128;50.230;18.944;2024-03-22T01:36:31;98678.78;;;11.79;71.09
63535;BME280;55128;50.230;18.944;2024-03-22T01:41:31;98680.34;;;11.83;71.10
63535;BME280;55128;50.230;18.944;2024-03-22T01:46:32;98679.56;;;11.81;71.65
63535;BME280;55128;50.230;18.944;2024-03-22T01:51:32;98687.06;;;11.73;72.01
63535;BME280;55128;50.230;18.944;2024-03-22T01:56:33;98674.78;;;11.70;72.84
63535;BME280;55128;50.230;18.944;2024-03-22T02:01:35;98683.34;;;11.58;74.10
63535;BME280;55128;50.230;18.944;2024-03-22T02:06:36;98687.44;;;11.65;73.40
63535;BME280;55128;50.230;18.944;2024-03-22T02:11:36;98682.81;;;11.68;73.79
63535;BME280;55128;50.230;18.944;2024-03-22T02:16:40;98682.13;;;11.65;73.65
63535;BME280;55128;50.230;18.944;2024-03-22T02:21:40;98681.66;;;11.74;73.57
63535;BME280;55128;50.230;18.944;2024-03-22T02:26:41;98691.66;;;11.69;73.65
63535;BME280;55128;50.230;18.944;2024-03-22T02:31:41;98691.13;;;11.80;73.65
63535;BME280;55128;50.230;18.944;2024-03-22T02:36:41;98681.97;;;11.68;73.35
63535;BME280;55128;50.230;18.944;2024-03-22T02:41:42;98677.09;;;11.59;73.41
63535;BME280;55128;50.230;18.944;2024-03-22T02:46:42;98667.56;;;11.55;73.89
63535;BME280;55128;50.230;18.944;2024-03-22T02:51:43;98675.66;;;11.34;75.03
63535;BME280;55128;50.230;18.944;2024-03-22T02:56:43;98676.63;;;11.32;75.53
63535;BME280;55128;50.230;18.944;2024-03-22T03:01:43;98674.31;;;11.43;75.02
63535;BME280;55128;50.230;18.944;2024-03-22T03:06:44;98673.28;;;11.28;76.27
63535;BME280;55128;50.230;18.944;2024-03-22T03:11:45;98668.78;;;11.30;76.07
63535;BME280;55128;50.230;18.944;2024-03-22T03:16:46;98666.09;;;11.30;75.73
63535;BME280;55128;50.230;18.944;2024-03-22T03:21:46;98663.66;;;11.25;76.74
63535;BME280;55128;50.230;18.944;2024-03-22T03:26:46;98663.53;;;11.28;76.79
63535;BME280;55128;50.230;18.944;2024-03-22T03:31:47;98659.28;;;11.24;76.67
63535;BME280;55128;50.230;18.944;2024-03-22T03:36:47;98654.75;;;11.26;76.19
63535;BME280;55128;50.230;18.944;2024-03-22T03:41:48;98646.59;;;11.12;76.56
63535;BME280;55128;50.230;18.944;2024-03-22T03:46:48;98641.56;;;11.06;77.39
63535;BME280;55128;50.230;18.944;2024-03-22T03:51:49;98649.97;;;10.97;76.92
63535;BME280;55128;50.230;18.944;2024-03-22T03:56:49;98645.38;;;11.00;77.20
63535;BME280;55128;50.230;18.944;2024-03-22T04:01:49;98648.22;;;10.96;76.90
63535;BME280;55128;50.230;18.944;2024-03-22T04:06:50;98650.59;;;10.83;77.41
63535;BME280;55128;50.230;18.944;2024-03-22T04:11:50;98642.56;;;11.03;76.88
63535;BME280;55128;50.230;18.944;2024-03-22T04:16:51;98646.88;;;11.06;76.97
63535;BME280;55128;50.230;18.944;2024-03-22T04:21:51;98641.41;;;11.09;76.76
63535;BME280;55128;50.230;18.944;2024-03-22T04:26:51;98635.59;;;11.01;77.20
63535;BME280;55128;50.230;18.944;2024-03-22T04:31:52;98628.66;;;10.98;77.73
63535;BME280;55128;50.230;18.944;2024-03-22T04:36:52;98627.19;;;11.10;77.37
63535;BME280;55128;50.230;18.944;2024-03-22T04:41:53;98636.44;;;11.20;76.72
63535;BME280;55128;50.230;18.944;2024-03-22T04:46:53;98635.66;;;11.18;75.82
63535;BME280;55128;50.230;18.944;2024-03-22T04:51:54;98652.25;;;11.04;77.14
63535;BME280;55128;50.230;18.944;2024-03-22T04:56:54;98655.34;;;11.14;76.86
63535;BME280;55128;50.230;18.944;2024-03-22T05:01:54;98653.53;;;10.96;76.76
63535;BME280;55128;50.230;18.944;2024-03-22T05:06:55;98658.06;;;10.75;75.99
63535;BME280;55128;50.230;18.944;2024-03-22T05:11:55;98669.19;;;10.83;76.30
63535;BME280;55128;50.230;18.944;2024-03-22T05:16:55;98674.44;;;10.84;76.41
63535;BME280;55128;50.230;18.944;2024-03-22T05:21:56;98667.63;;;10.79;75.72
63535;BME280;55128;50.230;18.944;2024-03-22T05:26:56;98671.28;;;10.76;75.49
63535;BME280;55128;50.230;18.944;2024-03-22T05:31:56;98674.72;;;10.78;74.36
63535;BME280;55128;50.230;18.944;2024-03-22T05:36:57;98668.50;;;10.79;74.09
63535;BME280;55128;50.230;18.944;2024-03-22T05:41:57;98672.50;;;10.69;73.36
63535;BME280;55128;50.230;18.944;2024-03-22T05:46:58;98684.69;;;10.73;72.21
63535;BME280;55128;50.230;18.944;2024-03-22T05:51:58;98675.22;;;10.86;72.21
63535;BME280;55128;50.230;18.944;2024-03-22T05:56:58;98677.59;;;10.74;71.01
63535;BME280;55128;50.230;18.944;2024-03-22T06:02:00;98673.72;;;10.81;70.46
63535;BME280;55128;50.230;18.944;2024-03-22T06:07:01;98662.72;;;10.69;71.02
63535;BME280;55128;50.230;18.944;2024-03-22T06:12:04;98658.25;;;10.91;70.68
63535;BME280;55128;50.230;18.944;2024-03-22T06:17:05;98663.19;;;10.79;69.64
63535;BME280;55128;50.230;18.944;2024-03-22T06:22:06;98662.66;;;10.71;70.09
63535;BME280;55128;50.230;18.944;2024-03-22T06:27:06;98673.09;;;10.76;70.20
63535;BME280;55128;50.230;18.944;2024-03-22T06:32:07;98679.63;;;10.87;69.49
63535;BME280;55128;50.230;18.944;2024-03-22T06:37:08;98670.22;;;10.80;69.54
63535;BME280;55128;50.230;18.944;2024-03-22T06:42:08;98679.13;;;10.98;69.23
63535;BME280;55128;50.230;18.944;2024-03-22T06:47:09;98676.22;;;11.22;69.35
63535;BME280;55128;50.230;18.944;2024-03-22T06:52:09;98671.72;;;11.05;69.48
63535;BME280;55128;50.230;18.944;2024-03-22T06:57:10;98676.03;;;11.07;68.97
63535;BME280;55128;50.230;18.944;2024-03-22T07:02:10;98672.56;;;11.05;68.79
63535;BME280;55128;50.230;18.944;2024-03-22T07:07:11;98671.56;;;11.08;68.81
63535;BME280;55128;50.230;18.944;2024-03-22T07:12:11;98671.88;;;11.21;69.20
63535;BME280;55128;50.230;18.944;2024-03-22T07:17:12;98666.97;;;11.31;68.11
63535;BME280;55128;50.230;18.944;2024-03-22T07:22:12;98673.44;;;11.25;67.97
63535;BME280;55128;50.230;18.944;2024-03-22T07:27:13;98664.75;;;11.21;68.34
63535;BME280;55128;50.230;18.944;2024-03-22T07:32:15;98658.50;;;11.22;68.45
63535;BME280;55128;50.230;18.944;2024-03-22T07:37:15;98670.84;;;11.23;68.70
63535;BME280;55128;50.230;18.944;2024-03-22T07:42:16;98664.53;;;11.07;69.55
63535;BME280;55128;50.230;18.944;2024-03-22T07:47:17;98662.03;;;11.23;69.64
63535;BME280;55128;50.230;18.944;2024-03-22T07:52:17;98653.69;;;11.12;68.91
63535;BME280;55128;50.230;18.944;2024-03-22T07:57:17;98659.91;;;11.29;68.90
63535;BME280;55128;50.230;18.944;2024-03-22T08:02:18;98645.91;;;11.26;69.50
63535;BME280;55128;50.230;18.944;2024-03-22T08:07:19;98647.41;;;11.32;68.64
63535;BME280;55128;50.230;18.944;2024-03-22T08:12:19;98644.03;;;11.47;69.16
63535;BME280;55128;50.230;18.944;2024-03-22T08:17:19;98651.22;;;11.62;69.02
63535;BME280;55128;50.230;18.944;2024-03-22T08:22:20;98645.16;;;11.95;67.73
63535;BME280;55128;50.230;18.944;2024-03-22T08:27:20;98643.97;;;11.83;66.98
63535;BME280;55128;50.230;18.944;2024-03-22T08:32:21;98656.34;;;11.84;67.05
63535;BME280;55128;50.230;18.944;2024-03-22T08:37:21;98655.13;;;11.55;67.73
63535;BME280;55128;50.230;18.944;2024-03-22T08:42:22;98649.22;;;11.85;67.36
63535;BME280;55128;50.230;18.944;2024-03-22T08:47:22;98655.63;;;11.81;68.18
63535;BME280;55128;50.230;18.944;2024-03-22T08:52:23;98656.09;;;11.89;67.13
63535;BME280;55128;50.230;18.944;2024-03-22T08:57:25;98652.66;;;12.04;66.85
63535;BME280;55128;50.230;18.944;2024-03-22T09:02:26;98648.91;;;11.91;66.80
63535;BME280;55128;50.230;18.944;2024-03-22T09:07:27;98649.94;;;12.06;66.81
63535;BME280;55128;50.230;18.944;2024-03-22T09:12:27;98645.66;;;12.37;66.37
63535;BME280;55128;50.230;18.944;2024-03-22T09:17:28;98643.91;;;12.53;65.62
63535;BME280;55128;50.230;18.944;2024-03-22T09:22:29;98638.47;;;12.39;66.00
63535;BME280;55128;50.230;18.944;2024-03-22T09:27:29;98643.06;;;12.53;65.24
63535;BME280;55128;50.230;18.944;2024-03-22T09:32:30;98640.03;;;12.76;64.53
63535;BME280;55128;50.230;18.944;2024-03-22T09:37:31;98627.63;;;12.91;63.92
63535;BME280;55128;50.230;18.944;2024-03-22T09:42:33;98636.25;;;12.80;63.78
63535;BME280;55128;50.230;18.944;2024-03-22T09:47:39;98619.97;;;12.69;64.89
63535;BME280;55128;50.230;18.944;2024-03-22T09:52:41;98614.75;;;13.15;63.83
63535;BME280;55128;50.230;18.944;2024-03-22T09:57:42;98605.78;;;13.48;62.52
63535;BME280;55128;50.230;18.944;2024-03-22T10:02:46;98605.09;;;14.05;61.07
63535;BME280;55128;50.230;18.944;2024-03-22T10:07:48;98602.41;;;15.06;59.82
63535;BME280;55128;50.230;18.944;2024-03-22T10:12:49;98605.19;;;15.04;56.92
63535;BME280;55128;50.230;18.944;2024-03-22T10:17:49;98601.19;;;14.54;57.87
63535;BME280;55128;50.230;18.944;2024-03-22T10:22:57;98595.50;;;14.60;57.18
63535;BME280;55128;50.230;18.944;2024-03-22T10:27:58;98590.59;;;14.52;57.96
63535;BME280;55128;50.230;18.944;2024-03-22T10:33:00;98593.50;;;14.49;56.98
63535;BME280;55128;50.230;18.944;2024-03-22T10:38:01;98581.47;;;14.71;57.31
63535;BME280;55128;50.230;18.944;2024-03-22T10:43:02;98580.59;;;15.26;55.64
63535;BME280;55128;50.230;18.944;2024-03-22T10:48:09;98567.97;;;15.28;54.73
63535;BME280;55128;50.230;18.944;2024-03-22T10:53:18;98553.31;;;15.34;53.59
63535;BME280;55128;50.230;18.944;2024-03-22T10:58:24;98544.13;;;15.38;53.20
63535;BME280;55128;50.230;18.944;2024-03-22T11:03:25;98552.50;;;15.86;53.05
63535;BME280;55128;50.230;18.944;2024-03-22T11:08:27;98543.19;;;16.05;53.21
63535;BME280;55128;50.230;18.944;2024-03-22T11:13:28;98548.66;;;16.16;52.24
63535;BME280;55128;50.230;18.944;2024-03-22T11:18:29;98540.38;;;15.81;51.99
63535;BME280;55128;50.230;18.944;2024-03-22T11:23:29;98536.22;;;15.49;53.24
63535;BME280;55128;50.230;18.944;2024-03-22T11:28:30;98530.31;;;15.44;53.25
63535;BME280;55128;50.230;18.944;2024-03-22T11:33:31;98525.34;;;15.25;53.34
63535;BME280;55128;50.230;18.944;2024-03-22T11:38:32;98519.50;;;15.33;52.44
63535;BME280;55128;50.230;18.944;2024-03-22T11:43:32;98512.47;;;15.45;52.74
63535;BME280;55128;50.230;18.944;2024-03-22T11:48:33;98503.06;;;15.39;52.34
63535;BME280;55128;50.230;18.944;2024-03-22T11:53:34;98493.69;;;15.19;52.92
63535;BME280;55128;50.230;18.944;2024-03-22T11:58:34;98498.78;;;15.49;53.06
63535;BME280;55128;50.230;18.944;2024-03-22T12:03:35;98489.00;;;15.76;53.13
63535;BME280;55128;50.230;18.944;2024-03-22T12:08:35;98480.84;;;15.77;51.67
63535;BME280;55128;50.230;18.944;2024-03-22T12:13:38;98483.38;;;15.66;51.59
63535;BME280;55128;50.230;18.944;2024-03-22T12:18:39;98482.59;;;15.38;52.01
63535;BME280;55128;50.230;18.944;2024-03-22T12:23:39;98481.53;;;15.28;52.36
63535;BME280;55128;50.230;18.944;2024-03-22T12:28:39;98476.88;;;15.17;52.55
63535;BME280;55128;50.230;18.944;2024-03-22T12:33:40;98475.94;;;15.31;52.55
63535;BME280;55128;50.230;18.944;2024-03-22T12:38:40;98460.00;;;15.16;52.73
63535;BME280;55128;50.230;18.944;2024-03-22T12:43:41;98451.69;;;15.34;52.64
63535;BME280;55128;50.230;18.944;2024-03-22T12:48:43;98440.75;;;15.50;52.97
63535;BME280;55128;50.230;18.944;2024-03-22T12:53:43;98425.59;;;15.89;51.67
63535;BME280;55128;50.230;18.944;2024-03-22T12:58:43;98429.19;;;16.01;51.40
63535;BME280;55128;50.230;18.944;2024-03-22T13:03:44;98417.63;;;16.13;50.65
63535;BME280;55128;50.230;18.944;2024-03-22T13:08:44;98414.31;;;15.97;51.01
63535;BME280;55128;50.230;18.944;2024-03-22T13:13:45;98405.91;;;15.90;50.47
63535;BME280;55128;50.230;18.944;2024-03-22T13:18:45;98402.56;;;15.61;50.97
63535;BME280;55128;50.230;18.944;2024-03-22T13:23:45;98399.34;;;15.68;50.99
63535;BME280;55128;50.230;18.944;2024-03-22T13:28:46;98392.28;;;15.80;51.38
63535;BME280;55128;50.230;18.944;2024-03-22T13:33:46;98391.75;;;15.49;51.43
63535;BME280;55128;50.230;18.944;2024-03-22T13:38:47;98389.06;;;15.24;51.66
63535;BME280;55128;50.230;18.944;2024-03-22T13:43:48;98379.00;;;15.14;52.42
63535;BME280;55128;50.230;18.944;2024-03-22T13:48:48;98374.53;;;15.28;52.39
63535;BME280;55128;50.230;18.944;2024-03-22T13:53:49;98369.06;;;15.16;51.91
63535;BME280;55128;50.230;18.944;2024-03-22T13:58:49;98359.41;;;15.01;52.82
63535;BME280;55128;50.230;18.944;2024-03-22T14:03:50;98354.53;;;15.21;52.62
63535;BME280;55128;50.230;18.944;2024-03-22T14:08:50;98352.25;;;15.27;51.54
63535;BME280;55128;50.230;18.944;2024-03-22T14:13:54;98339.75;;;15.02;51.76
63535;BME280;55128;50.230;18.944;2024-03-22T14:18:54;98340.81;;;14.87;52.11
63535;BME280;55128;50.230;18.944;2024-03-22T14:23:55;98345.94;;;14.90;52.73
63535;BME280;55128;50.230;18.944;2024-03-22T14:28:55;98334.28;;;14.91;53.10
63535;BME280;55128;50.230;18.944;2024-03-22T14:33:56;98334.16;;;15.05;53.68
63535;BME280;55128;50.230;18.944;2024-03-22T14:38:56;98318.78;;;14.96;53.18
63535;BME280;55128;50.230;18.944;2024-03-22T14:43:56;98323.63;;;14.64;54.28
63535;BME280;55128;50.230;18.944;2024-03-22T14:48:57;98312.81;;;14.92;53.73
63535;BME280;55128;50.230;18.944;2024-03-22T14:53:57;98321.34;;;14.85;54.08
63535;BME280;55128;50.230;18.944;2024-03-22T14:58:58;98322.22;;;15.11;53.52
63535;BME280;55128;50.230;18.944;2024-03-22T15:04:00;98304.66;;;14.94;53.34
63535;BME280;55128;50.230;18.944;2024-03-22T15:09:00;98296.88;;;14.91;54.09
63535;BME280;55128;50.230;18.944;2024-03-22T15:14:09;98286.28;;;15.02;53.85
63535;BME280;55128;50.230;18.944;2024-03-22T15:19:09;98289.06;;;15.13;53.67
63535;BME280;55128;50.230;18.944;2024-03-22T15:24:10;98281.88;;;14.75;53.77
63535;BME280;55128;50.230;18.944;2024-03-22T15:29:10;98280.88;;;14.51;54.23
63535;BME280;55128;50.230;18.944;2024-03-22T15:34:11;98271.19;;;14.35;55.13
63535;BME280;55128;50.230;18.944;2024-03-22T15:39:11;98273.78;;;14.50;55.00
63535;BME280;55128;50.230;18.944;2024-03-22T15:44:11;98271.00;;;14.38;55.75
63535;BME280;55128;50.230;18.944;2024-03-22T15:49:12;98265.97;;;14.47;55.32
63535;BME280;55128;50.230;18.944;2024-03-22T15:54:14;98267.66;;;14.35;55.83
63535;BME280;55128;50.230;18.944;2024-03-22T15:59:14;98263.66;;;14.15;58.75
63535;BME280;55128;50.230;18.944;2024-03-22T16:04:15;98265.22;;;14.05;58.93
63535;BME280;55128;50.230;18.944;2024-03-22T16:09:15;98264.00;;;13.96;60.69
63535;BME280;55128;50.230;18.944;2024-03-22T16:14:16;98261.66;;;13.91;62.49
63535;BME280;55128;50.230;18.944;2024-03-22T16:19:17;98259.63;;;13.68;65.31
63535;BME280;55128;50.230;18.944;2024-03-22T16:24:17;98253.78;;;13.48;67.18
63535;BME280;55128;50.230;18.944;2024-03-22T16:29:19;98259.13;;;13.19;68.51
63535;BME280;55128;50.230;18.944;2024-03-22T16:34:24;98241.50;;;12.88;71.50
63535;BME280;55128;50.230;18.944;2024-03-22T16:39:24;98243.09;;;12.62;72.44
63535;BME280;55128;50.230;18.944;2024-03-22T16:44:25;98247.06;;;12.55;71.21
63535;BME280;55128;50.230;18.944;2024-03-22T16:49:25;98237.59;;;12.35;72.68
63535;BME280;55128;50.230;18.944;2024-03-22T16:54:26;98228.69;;;12.36;72.46
63535;BME280;55128;50.230;18.944;2024-03-22T16:59:26;98236.91;;;12.17;73.17
63535;BME280;55128;50.230;18.944;2024-03-22T17:04:27;98234.16;;;12.33;72.55
63535;BME280;55128;50.230;18.944;2024-03-22T17:09:27;98217.59;;;12.13;73.32
63535;BME280;55128;50.230;18.944;2024-03-22T17:14:27;98211.88;;;11.89;73.56
63535;BME280;55128;50.230;18.944;2024-03-22T17:19:29;98208.31;;;11.90;73.67
63535;BME280;55128;50.230;18.944;2024-03-22T17:24:30;98216.19;;;11.76;73.88
63535;BME280;55128;50.230;18.944;2024-03-22T17:29:30;98213.56;;;12.06;73.34
63535;BME280;55128;50.230;18.944;2024-03-22T17:34:31;98206.56;;;12.19;73.47
63535;BME280;55128;50.230;18.944;2024-03-22T17:39:34;98211.88;;;12.05;74.05
63535;BME280;55128;50.230;18.944;2024-03-22T17:44:35;98209.69;;;12.12;74.34
63535;BME280;55128;50.230;18.944;2024-03-22T17:49:35;98193.69;;;11.81;76.00
63535;BME280;55128;50.230;18.944;2024-03-22T17:54:36;98192.16;;;11.77;75.82
63535;BME280;55128;50.230;18.944;2024-03-22T17:59:36;98204.84;;;11.88;75.28
63535;BME280;55128;50.230;18.944;2024-03-22T18:04:36;98188.19;;;12.00;75.74
63535;BME280;55128;50.230;18.944;2024-03-22T18:09:37;98187.81;;;12.06;74.03
63535;BME280;55128;50.230;18.944;2024-03-22T18:14:37;98182.00;;;11.84;76.66
63535;BME280;55128;50.230;18.944;2024-03-22T18:19:38;98172.19;;;11.70;76.87
63535;BME280;55128;50.230;18.944;2024-03-22T18:24:38;98171.66;;;11.79;77.39
63535;BME280;55128;50.230;18.944;2024-03-22T18:29:39;98162.63;;;11.82;77.10
63535;BME280;55128;50.230;18.944;2024-03-22T18:34:39;98160.06;;;11.80;77.67
63535;BME280;55128;50.230;18.944;2024-03-22T18:39:40;98154.06;;;11.77;77.16
63535;BME280;55128;50.230;18.944;2024-03-22T18:44:40;98148.91;;;11.90;77.03
63535;BME280;55128;50.230;18.944;2024-03-22T18:49:41;98146.34;;;11.88;76.10
63535;BME280;55128;50.230;18.944;2024-03-22T18:54:55;98140.00;;;11.75;77.95
63535;BME280;55128;50.230;18.944;2024-03-22T18:59:56;98135.56;;;11.75;78.08
63535;BME280;55128;50.230;18.944;2024-03-22T19:04:57;98122.03;;;11.64;77.23
63535;BME280;55128;50.230;18.944;2024-03-22T19:09:57;98116.94;;;11.45;75.88
63535;BME280;55128;50.230;18.944;2024-03-22T19:14:58;98114.69;;;11.53;73.50
63535;BME280;55128;50.230;18.944;2024-03-22T19:19:58;98125.72;;;11.61;72.40
63535;BME280;55128;50.230;18.944;2024-03-22T19:24:59;98121.00;;;11.66;71.80
63535;BME280;55128;50.230;18.944;2024-03-22T19:29:59;98119.09;;;11.68;71.41
63535;BME280;55128;50.230;18.944;2024-03-22T19:34:59;98115.75;;;11.65;70.94
63535;BME280;55128;50.230;18.944;2024-03-22T19:40:00;98117.41;;;11.67;71.87
63535;BME280;55128;50.230;18.944;2024-03-22T19:45:03;98105.72;;;11.70;73.73
63535;BME280;55128;50.230;18.944;2024-03-22T19:50:05;98092.34;;;11.72;72.12
63535;BME280;55128;50.230;18.944;2024-03-22T19:55:06;98094.91;;;11.73;72.82
63535;BME280;55128;50.230;18.944;2024-03-22T20:00:07;98085.88;;;11.76;72.46
63535;BME280;55128;50.230;18.944;2024-03-22T20:05:08;98074.56;;;11.72;72.23
63535;BME280;55128;50.230;18.944;2024-03-22T20:10:08;98070.56;;;11.65;73.70
63535;BME280;55128;50.230;18.944;2024-03-22T20:15:09;98071.88;;;11.58;74.19
63535;BME280;55128;50.230;18.944;2024-03-22T20:20:10;98067.97;;;11.49;74.07
63535;BME280;55128;50.230;18.944;2024-03-22T20:25:11;98067.50;;;11.57;73.95
63535;BME280;55128;50.230;18.944;2024-03-22T20:30:12;98061.72;;;11.64;74.28
63535;BME280;55128;50.230;18.944;2024-03-22T20:35:12;98064.84;;;11.57;73.54
